sensor_id;sensor_type;location;lat;lon;timestamp;temperature;humidity
5828;DHT22;42583;50.240;8.444;2023-11-21T00:10:47;7.20;99.90
5828;DHT22;42583;50.240;8.444;2023-11-21T00:25:48;7.30;99.90
5828;DHT22;42583;50.240;8.444;2023-11-21T00:40:48;7.30;99.90
5828;DHT22;42583;50.240;8.444;2023-11-21T00:55:49;7.40;99.90
5828;DHT22;42583;50.240;8.444;2023-11-21T01:10:49;7.40;99.90
5828;DHT22;42583;50.240;8.444;2023-11-21T01:25:50;7.40;99.90
5828;DHT22;42583;50.240;8.444;2023-11-21T01:40:52;7.30;99.90
5828;DHT22;42583;50.240;8.444;2023-11-21T01:55:53;7.30;99.90
5828;DHT22;42583;50.240;8.444;2023-11-21T02:10:54;7.20;99.90
5828;DHT22;42583;50.240;8.444;2023-11-21T02:25:54;7.10;99.90
5828;DHT22;42583;50.240;8.444;2023-11-21T02:40:57;7.10;99.90
5828;DHT22;42583;50.240;8.444;2023-11-21T02:55:59;7.10;99.90
5828;DHT22;42583;50.240;8.444;2023-11-21T03:11:00;7.10;99.90
5828;DHT22;42583;50.240;8.444;2023-11-21T03:26:00;7.20;99.90
5828;DHT22;42583;50.240;8.444;2023-11-21T03:41:01;7.20;99.90
5828;DHT22;42583;50.240;8.444;2023-11-21T03:56:03;7.20;99.90
5828;DHT22;42583;50.240;8.444;2023-11-21T04:11:04;7.20;99.90
5828;DHT22;42583;50.240;8.444;2023-11-21T04:26:04;7.20;99.90
5828;DHT22;42583;50.240;8.444;2023-11-21T04:41:05;7.20;99.90
5828;DHT22;42583;50.240;8.444;2023-11-21T04:56:06;7.20;99.90
5828;DHT22;42583;50.240;8.444;2023-11-21T05:11:06;7.20;99.90
5828;DHT22;42583;50.240;8.444;2023-11-21T05:26:11;7.20;99.90
5828;DHT22;42583;50.240;8.444;2023-11-21T05:41:11;7.10;99.90
5828;DHT22;42583;50.240;8.444;2023-11-21T05:56:13;7.00;99.90
5828;DHT22;42583;50.240;8.444;2023-11-21T06:11:14;7.10;99.90
5828;DHT22;42583;50.240;8.444;2023-11-21T06:26:14;7.10;99.90
5828;DHT22;42583;50.240;8.444;2023-11-21T06:41:15;7.10;99.90
5828;DHT22;42583;50.240;8.444;2023-11-21T06:56:17;7.10;99.90
5828;DHT22;42583;50.240;8.444;2023-11-21T07:11:17;7.00;99.90
5828;DHT22;42583;50.240;8.444;2023-11-21T07:26:19;7.00;99.90
5828;DHT22;42583;50.240;8.444;2023-11-21T07:41:20;7.00;99.90
5828;DHT22;42583;50.240;8.444;2023-11-21T07:56:21;7.00;99.90
5828;DHT22;42583;50.240;8.444;2023-11-21T08:11:21;7.10;99.90
5828;DHT22;42583;50.240;8.444;2023-11-21T08:26:22;7.10;99.90
5828;DHT22;42583;50.240;8.444;2023-11-21T08:41:23;7.20;99.90
5828;DHT22;42583;50.240;8.444;2023-11-21T08:56:24;7.30;99.90
5828;DHT22;42583;50.240;8.444;2023-11-21T09:11:25;7.40;99.90
5828;DHT22;42583;50.240;8.444;2023-11-21T09:26:27;7.40;99.90
5828;DHT22;42583;50.240;8.444;2023-11-21T09:41:40;7.50;99.90
5828;DHT22;42583;50.240;8.444;2023-11-21T09:56:44;7.80;99.90
5828;DHT22;42583;50.240;8.444;2023-11-21T10:11:44;8.80;99.90
5828;DHT22;42583;50.240;8.444;2023-11-21T10:26:45;8.90;99.90
5828;DHT22;42583;50.240;8.444;2023-11-21T10:41:49;9.70;99.90
5828;DHT22;42583;50.240;8.444;2023-11-21T10:56:56;14.60;99.90
5828;DHT22;42583;50.240;8.444;2023-11-21T11:11:57;17.90;99.90
5828;DHT22;42583;50.240;8.444;2023-11-21T11:42:23;16.30;99.90
5828;DHT22;42583;50.240;8.444;2023-11-21T11:57:24;14.40;99.90
5828;DHT22;42583;50.240;8.444;2023-11-21T12:12:26;13.50;99.90
5828;DHT22;42583;50.240;8.444;2023-11-21T12:27:26;12.30;99.90
5828;DHT22;42583;50.240;8.444;2023-11-21T12:42:27;11.40;99.90
5828;DHT22;42583;50.240;8.444;2023-11-21T12:57:28;10.80;99.90
5828;DHT22;42583;50.240;8.444;2023-11-21T13:12:29;10.50;99.90
5828;DHT22;42583;50.240;8.444;2023-11-21T13:27:29;10.70;99.90
5828;DHT22;42583;50.240;8.444;2023-11-21T13:42:31;10.50;99.90
5828;DHT22;42583;50.240;8.444;2023-11-21T13:57:32;10.00;99.90
5828;DHT22;42583;50.240;8.444;2023-11-21T14:12:33;9.50;99.90
5828;DHT22;42583;50.240;8.444;2023-11-21T14:27:36;9.10;99.90
5828;DHT22;42583;50.240;8.444;2023-11-21T14:42:37;8.80;99.90
5828;DHT22;42583;50.240;8.444;2023-11-21T14:57:40;8.70;99.90
5828;DHT22;42583;50.240;8.444;2023-11-21T15:12:41;8.60;99.90
5828;DHT22;42583;50.240;8.444;2023-11-21T15:27:43;8.40;99.90
5828;DHT22;42583;50.240;8.444;2023-11-21T15:42:44;8.30;99.90
5828;DHT22;42583;50.240;8.444;2023-11-21T15:57:45;8.20;99.90
5828;DHT22;42583;50.240;8.444;2023-11-21T16:12:46;8.00;99.90
5828;DHT22;42583;50.240;8.444;2023-11-21T16:27:46;7.90;99.90
5828;DHT22;42583;50.240;8.444;2023-11-21T16:42:47;7.80;99.90
5828;DHT22;42583;50.240;8.444;2023-11-21T16:57:48;7.80;99.90
5828;DHT22;42583;50.240;8.444;2023-11-21T17:12:48;7.80;99.90
5828;DHT22;42583;50.240;8.444;2023-11-21T17:27:50;7.80;99.90
5828;DHT22;42583;50.240;8.444;2023-11-21T17:42:51;7.70;99.90
5828;DHT22;42583;50.240;8.444;2023-11-21T17:57:52;7.60;99.90
5828;DHT22;42583;50.240;8.444;2023-11-21T18:12:53;7.50;99.90
5828;DHT22;42583;50.240;8.444;2023-11-21T18:27:54;7.40;99.90
5828;DHT22;42583;50.240;8.444;2023-11-21T18:42:55;7.40;99.90
5828;DHT22;42583;50.240;8.444;2023-11-21T18:57:56;7.30;99.90
5828;DHT22;42583;50.240;8.444;2023-11-21T19:12:56;7.10;99.90
5828;DHT22;42583;50.240;8.444;2023-11-21T19:27:57;6.70;99.90
5828;DHT22;42583;50.240;8.444;2023-11-21T19:42:57;6.40;99.90
5828;DHT22;42583;50.240;8.444;2023-11-21T19:57:58;6.20;99.90
5828;DHT22;42583;50.240;8.444;2023-11-21T20:13:00;6.00;99.90
5828;DHT22;42583;50.240;8.444;2023-11-21T20:28:01;5.80;99.90
5828;DHT22;42583;50.240;8.444;2023-11-21T20:43:02;5.50;99.90
5828;DHT22;42583;50.240;8.444;2023-11-21T20:58:03;5.20;99.90
5828;DHT22;42583;50.240;8.444;2023-11-21T21:13:03;5.10;99.90
5828;DHT22;42583;50.240;8.444;2023-11-21T21:28:05;4.90;99.90
5828;DHT22;42583;50.240;8.444;2023-11-21T21:43:05;4.70;99.90
5828;DHT22;42583;50.240;8.444;2023-11-21T21:58:06;4.50;99.90
5828;DHT22;42583;50.240;8.444;2023-11-21T22:13:07;4.40;99.90
5828;DHT22;42583;50.240;8.444;2023-11-21T22:28:08;4.40;99.90
5828;DHT22;42583;50.240;8.444;2023-11-21T22:43:10;4.20;99.90
5828;DHT22;42583;50.240;8.444;2023-11-21T22:58:11;4.10;99.90
5828;DHT22;42583;50.240;8.444;2023-11-21T23:13:11;3.90;99.90
5828;DHT22;42583;50.240;8.444;2023-11-21T23:28:13;3.70;99.90
5828;DHT22;42583;50.240;8.444;2023-11-21T23:43:14;3.50;99.90
5828;DHT22;42583;50.240;8.444;2023-11-21T23:58:14;3.60;99.90
